sensor_id;sensor_type;location;lat;lon;timestamp;pressure;altitude;pressure_sealevel;temperature;humidity
4012;BME280;2020;48.682;9.024;2023-02-28T00:01:31;96995.00;;;-3.72;63.83
4012;BME280;2020;48.682;9.024;2023-02-28T00:03:57;96990.69;;;-3.70;63.81
4012;BME280;2020;48.682;9.024;2023-02-28T00:06:22;96995.56;;;-3.64;63.42
4012;BME280;2020;48.682;9.024;2023-02-28T00:08:49;96998.00;;;-3.61;63.33
4012;BME280;2020;48.682;9.024;2023-02-28T00:11:15;96990.66;;;-3.69;63.71
4012;BME280;2020;48.682;9.024;2023-02-28T00:13:43;96992.44;;;-3.71;63.73
4012;BME280;2020;48.682;9.024;2023-02-28T00:16:13;96993.47;;;-3.76;63.74
4012;BME280;2020;48.682;9.024;2023-02-28T00:18:40;96996.84;;;-3.76;63.95
4012;BME280;2020;48.682;9.024;2023-02-28T00:21:06;96997.09;;;-3.84;64.13
4012;BME280;2020;48.682;9.024;2023-02-28T00:23:32;96987.03;;;-3.87;64.17
4012;BME280;2020;48.682;9.024;2023-02-28T00:25:58;96979.94;;;-4.02;64.07
4012;BME280;2020;48.682;9.024;2023-02-28T00:28:24;96985.69;;;-3.97;65.15
4012;BME280;2020;48.682;9.024;2023-02-28T00:30:49;96987.13;;;-3.90;65.16
4012;BME280;2020;48.682;9.024;2023-02-28T00:33:15;96983.81;;;-3.92;64.85
4012;BME280;2020;48.682;9.024;2023-02-28T00:35:40;96988.81;;;-3.89;65.37
4012;BME280;2020;48.682;9.024;2023-02-28T00:38:05;96987.03;;;-3.87;64.91
4012;BME280;2020;48.682;9.024;2023-02-28T00:40:30;96987.97;;;-3.89;64.89
4012;BME280;2020;48.682;9.024;2023-02-28T00:42:56;96984.56;;;-3.88;65.24
4012;BME280;2020;48.682;9.024;2023-02-28T00:45:21;96987.88;;;-3.86;65.03
4012;BME280;2020;48.682;9.024;2023-02-28T00:47:46;96990.66;;;-3.94;65.30
4012;BME280;2020;48.682;9.024;2023-02-28T00:50:15;96984.13;;;-4.01;65.18
4012;BME280;2020;48.682;9.024;2023-02-28T00:52:41;96987.47;;;-3.99;66.02
4012;BME280;2020;48.682;9.024;2023-02-28T00:55:06;96984.03;;;-3.98;65.44
4012;BME280;2020;48.682;9.024;2023-02-28T00:57:32;96976.41;;;-3.98;65.42
4012;BME280;2020;48.682;9.024;2023-02-28T00:59:57;96976.41;;;-3.98;66.00
4012;BME280;2020;48.682;9.024;2023-02-28T01:02:22;96981.63;;;-4.03;65.93
4012;BME280;2020;48.682;9.024;2023-02-28T01:04:48;96982.69;;;-4.08;65.68
4012;BME280;2020;48.682;9.024;2023-02-28T01:07:14;96979.38;;;-4.11;66.09
4012;BME280;2020;48.682;9.024;2023-02-28T01:09:40;96979.69;;;-4.20;66.61
4012;BME280;2020;48.682;9.024;2023-02-28T01:12:07;96981.22;;;-4.16;66.39
4012;BME280;2020;48.682;9.024;2023-02-28T01:14:32;96979.38;;;-4.11;66.28
4012;BME280;2020;48.682;9.024;2023-02-28T01:16:58;96979.47;;;-4.14;66.33
4012;BME280;2020;48.682;9.024;2023-02-28T01:19:23;96978.03;;;-4.21;66.54
4012;BME280;2020;48.682;9.024;2023-02-28T01:21:48;96968.53;;;-4.16;66.89
4012;BME280;2020;48.682;9.024;2023-02-28T01:24:13;96971.88;;;-4.15;66.85
4012;BME280;2020;48.682;9.024;2023-02-28T01:26:39;96974.59;;;-4.20;67.34
4012;BME280;2020;48.682;9.024;2023-02-28T01:29:04;96972.25;;;-4.26;67.76
4012;BME280;2020;48.682;9.024;2023-02-28T01:31:29;96963.69;;;-4.23;67.63
4012;BME280;2020;48.682;9.024;2023-02-28T01:33:54;96968.88;;;-4.27;67.94
4012;BME280;2020;48.682;9.024;2023-02-28T01:36:22;96969.63;;;-4.23;67.65
4012;BME280;2020;48.682;9.024;2023-02-28T01:38:48;96971.38;;;-4.25;68.14
4012;BME280;2020;48.682;9.024;2023-02-28T01:41:26;96967.00;;;-4.47;68.13
4012;BME280;2020;48.682;9.024;2023-02-28T01:44:07;96970.13;;;-4.38;68.75
4012;BME280;2020;48.682;9.024;2023-02-28T01:46:50;96968.38;;;-4.36;69.32
4012;BME280;2020;48.682;9.024;2023-02-28T01:49:17;96974.91;;;-4.29;69.07
4012;BME280;2020;48.682;9.024;2023-02-28T01:51:52;96967.47;;;-4.35;68.84
4012;BME280;2020;48.682;9.024;2023-02-28T01:54:30;96961.53;;;-4.34;69.20
4012;BME280;2020;48.682;9.024;2023-02-28T01:56:59;96959.97;;;-4.38;69.69
4012;BME280;2020;48.682;9.024;2023-02-28T01:59:36;96958.41;;;-4.43;69.84
4012;BME280;2020;48.682;9.024;2023-02-28T02:02:05;96951.97;;;-4.53;69.78
4012;BME280;2020;48.682;9.024;2023-02-28T02:04:37;96956.09;;;-4.50;70.46
4012;BME280;2020;48.682;9.024;2023-02-28T02:07:04;96956.25;;;-4.55;70.74
4012;BME280;2020;48.682;9.024;2023-02-28T02:09:30;96951.97;;;-4.53;70.40
4012;BME280;2020;48.682;9.024;2023-02-28T02:11:55;96947.75;;;-4.54;70.63
4012;BME280;2020;48.682;9.024;2023-02-28T02:15:04;96951.28;;;-4.58;71.52
4012;BME280;2020;48.682;9.024;2023-02-28T02:17:21;96947.25;;;-4.65;71.20
4012;BME280;2020;48.682;9.024;2023-02-28T02:23:01;96945.13;;;-4.51;71.51
4012;BME280;2020;48.682;9.024;2023-02-28T02:25:45;96936.91;;;-4.59;71.46
4012;BME280;2020;48.682;9.024;2023-02-28T02:28:46;96935.84;;;-4.52;71.73
4012;BME280;2020;48.682;9.024;2023-02-28T02:31:55;96938.28;;;-4.49;71.62
4012;BME280;2020;48.682;9.024;2023-02-28T02:34:41;96936.50;;;-4.47;71.95
4012;BME280;2020;48.682;9.024;2023-02-28T02:40:00;96929.88;;;-4.51;72.32
4012;BME280;2020;48.682;9.024;2023-02-28T02:43:07;96928.88;;;-4.47;72.30
4012;BME280;2020;48.682;9.024;2023-02-28T02:45:40;96936.53;;;-4.48;72.62
4012;BME280;2020;48.682;9.024;2023-02-28T02:48:11;96939.94;;;-4.48;72.89
4012;BME280;2020;48.682;9.024;2023-02-28T02:50:43;96936.72;;;-4.53;72.83
4012;BME280;2020;48.682;9.024;2023-02-28T02:53:10;96941.59;;;-4.47;73.01
4012;BME280;2020;48.682;9.024;2023-02-28T02:55:40;96936.50;;;-4.47;73.01
4012;BME280;2020;48.682;9.024;2023-02-28T02:58:10;96937.31;;;-4.46;73.31
4012;BME280;2020;48.682;9.024;2023-02-28T03:00:46;96939.94;;;-4.48;73.30
4012;BME280;2020;48.682;9.024;2023-02-28T03:03:13;96943.19;;;-4.44;73.82
4012;BME280;2020;48.682;9.024;2023-02-28T03:05:46;96941.50;;;-4.44;74.04
4012;BME280;2020;48.682;9.024;2023-02-28T03:08:12;96934.66;;;-4.42;73.92
4012;BME280;2020;48.682;9.024;2023-02-28T03:23:01;96943.16;;;-4.43;75.05
4012;BME280;2020;48.682;9.024;2023-02-28T03:31:22;96935.53;;;-4.43;75.57
4012;BME280;2020;48.682;9.024;2023-02-28T03:33:56;96938.84;;;-4.41;75.17
4012;BME280;2020;48.682;9.024;2023-02-28T03:36:30;96944.81;;;-4.42;75.71
4012;BME280;2020;48.682;9.024;2023-02-28T03:39:07;96938.28;;;-4.49;76.02
4012;BME280;2020;48.682;9.024;2023-02-28T03:41:40;96933.88;;;-4.44;76.07
4012;BME280;2020;48.682;9.024;2023-02-28T03:44:21;96942.31;;;-4.43;76.46
4012;BME280;2020;48.682;9.024;2023-02-28T03:47:21;96933.88;;;-4.44;76.33
4012;BME280;2020;48.682;9.024;2023-02-28T03:49:49;96931.31;;;-4.44;76.79
4012;BME280;2020;48.682;9.024;2023-02-28T03:52:19;96934.44;;;-4.35;76.70
4012;BME280;2020;48.682;9.024;2023-02-28T03:54:52;96929.25;;;-4.32;76.58
4012;BME280;2020;48.682;9.024;2023-02-28T03:59:52;96933.44;;;-4.31;76.80
4012;BME280;2020;48.682;9.024;2023-02-28T04:02:19;96939.53;;;-4.35;77.24
4012;BME280;2020;48.682;9.024;2023-02-28T04:04:44;96940.22;;;-4.32;77.63
4012;BME280;2020;48.682;9.024;2023-02-28T04:07:14;96933.50;;;-4.33;78.03
4012;BME280;2020;48.682;9.024;2023-02-28T04:09:40;96940.13;;;-4.29;78.06
4012;BME280;2020;48.682;9.024;2023-02-28T04:12:05;96941.06;;;-4.31;78.58
4012;BME280;2020;48.682;9.024;2023-02-28T04:14:31;96932.78;;;-4.36;78.82
4012;BME280;2020;48.682;9.024;2023-02-28T04:16:56;96930.91;;;-4.31;79.38
4012;BME280;2020;48.682;9.024;2023-02-28T04:19:22;96929.25;;;-4.32;78.88
4012;BME280;2020;48.682;9.024;2023-02-28T04:21:50;96933.56;;;-4.34;79.00
4012;BME280;2020;48.682;9.024;2023-02-28T04:24:21;96936.00;;;-4.31;79.13
4012;BME280;2020;48.682;9.024;2023-02-28T04:26:48;96941.50;;;-4.44;79.54
4012;BME280;2020;48.682;9.024;2023-02-28T04:29:20;96939.84;;;-4.45;79.67
4012;BME280;2020;48.682;9.024;2023-02-28T04:31:45;96944.28;;;-4.51;79.66
4012;BME280;2020;48.682;9.024;2023-02-28T04:34:11;96936.19;;;-4.37;80.07
4012;BME280;2020;48.682;9.024;2023-02-28T04:36:36;96939.41;;;-4.32;79.89
4012;BME280;2020;48.682;9.024;2023-02-28T04:39:02;96934.22;;;-4.29;79.53
4012;BME280;2020;48.682;9.024;2023-02-28T04:41:27;96929.03;;;-4.26;79.66
4012;BME280;2020;48.682;9.024;2023-02-28T04:43:52;96938.16;;;-4.46;79.43
4012;BME280;2020;48.682;9.024;2023-02-28T04:46:18;96941.50;;;-4.44;80.53
4012;BME280;2020;48.682;9.024;2023-02-28T04:48:44;96923.38;;;-4.34;80.43
4012;BME280;2020;48.682;9.024;2023-02-28T04:51:12;96925.94;;;-4.34;79.97
4012;BME280;2020;48.682;9.024;2023-02-28T04:53:39;96932.47;;;-4.27;79.90
4012;BME280;2020;48.682;9.024;2023-02-28T04:56:05;96935.91;;;-4.28;79.56
4012;BME280;2020;48.682;9.024;2023-02-28T04:58:31;96932.38;;;-4.24;79.68
4012;BME280;2020;48.682;9.024;2023-02-28T05:01:05;96933.06;;;-4.20;80.08
4012;BME280;2020;48.682;9.024;2023-02-28T05:03:39;96938.78;;;-4.14;79.52
4012;BME280;2020;48.682;9.024;2023-02-28T05:06:06;96942.00;;;-4.08;79.68
4012;BME280;2020;48.682;9.024;2023-02-28T05:08:32;96935.56;;;-4.19;79.00
4012;BME280;2020;48.682;9.024;2023-02-28T05:10:57;96929.34;;;-4.35;79.64
4012;BME280;2020;48.682;9.024;2023-02-28T05:13:22;96940.03;;;-4.26;80.17
4012;BME280;2020;48.682;9.024;2023-02-28T05:15:48;96944.59;;;-4.35;80.04
4012;BME280;2020;48.682;9.024;2023-02-28T05:18:13;96945.97;;;-4.25;80.58
4012;BME280;2020;48.682;9.024;2023-02-28T05:20:38;96937.56;;;-4.27;79.82
4012;BME280;2020;48.682;9.024;2023-02-28T05:23:03;96949.38;;;-4.26;80.30
4012;BME280;2020;48.682;9.024;2023-02-28T05:25:29;96943.34;;;-4.23;80.67
4012;BME280;2020;48.682;9.024;2023-02-28T05:27:54;96949.16;;;-4.20;80.55
4012;BME280;2020;48.682;9.024;2023-02-28T05:30:19;96955.06;;;-4.19;80.66
4012;BME280;2020;48.682;9.024;2023-02-28T05:32:50;96949.06;;;-4.17;80.78
4012;BME280;2020;48.682;9.024;2023-02-28T05:35:15;96955.16;;;-4.22;80.99
4012;BME280;2020;48.682;9.024;2023-02-28T05:37:41;96954.41;;;-4.24;81.27
4012;BME280;2020;48.682;9.024;2023-02-28T05:40:06;96951.25;;;-4.31;81.36
4012;BME280;2020;48.682;9.024;2023-02-28T05:42:35;96947.81;;;-4.30;81.77
4012;BME280;2020;48.682;9.024;2023-02-28T05:45:00;96937.88;;;-4.36;82.21
4012;BME280;2020;48.682;9.024;2023-02-28T05:47:26;96947.50;;;-4.21;82.45
4012;BME280;2020;48.682;9.024;2023-02-28T05:49:51;96947.41;;;-4.18;81.76
4012;BME280;2020;48.682;9.024;2023-02-28T05:52:16;96946.84;;;-4.26;81.72
4012;BME280;2020;48.682;9.024;2023-02-28T05:54:42;96941.84;;;-4.29;82.16
4012;BME280;2020;48.682;9.024;2023-02-28T05:57:07;96951.03;;;-4.25;82.23
4012;BME280;2020;48.682;9.024;2023-02-28T05:59:32;96950.09;;;-4.22;82.68
4012;BME280;2020;48.682;9.024;2023-02-28T06:01:58;96945.75;;;-4.19;82.75
4012;BME280;2020;48.682;9.024;2023-02-28T06:04:23;96949.06;;;-4.17;83.19
4012;BME280;2020;48.682;9.024;2023-02-28T06:06:49;96944.88;;;-4.18;83.83
4012;BME280;2020;48.682;9.024;2023-02-28T06:09:15;96949.47;;;-4.29;83.48
4012;BME280;2020;48.682;9.024;2023-02-28T06:11:40;96952.81;;;-4.27;84.00
4012;BME280;2020;48.682;9.024;2023-02-28T06:14:07;96956.03;;;-4.22;84.14
4012;BME280;2020;48.682;9.024;2023-02-28T06:16:34;96953.41;;;-4.20;84.43
4012;BME280;2020;48.682;9.024;2023-02-28T06:19:01;96959.13;;;-4.14;84.54
4012;BME280;2020;48.682;9.024;2023-02-28T06:21:29;96963.38;;;-4.14;84.48
4012;BME280;2020;48.682;9.024;2023-02-28T06:23:56;96967.63;;;-4.15;84.69
4012;BME280;2020;48.682;9.024;2023-02-28T06:26:22;96978.91;;;-4.22;84.58
4012;BME280;2020;48.682;9.024;2023-02-28T06:28:47;96974.50;;;-4.17;84.70
4012;BME280;2020;48.682;9.024;2023-02-28T06:31:15;96983.56;;;-4.09;85.04
4012;BME280;2020;48.682;9.024;2023-02-28T06:33:42;96985.13;;;-4.05;85.12
4012;BME280;2020;48.682;9.024;2023-02-28T06:36:09;96979.16;;;-4.04;85.10
4012;BME280;2020;48.682;9.024;2023-02-28T06:38:34;96982.59;;;-4.05;84.24
4012;BME280;2020;48.682;9.024;2023-02-28T06:41:00;96979.47;;;-4.14;85.57
4012;BME280;2020;48.682;9.024;2023-02-28T06:43:29;96980.19;;;-4.10;85.26
4012;BME280;2020;48.682;9.024;2023-02-28T06:45:56;96979.47;;;-4.14;84.63
4012;BME280;2020;48.682;9.024;2023-02-28T06:48:21;96986.53;;;-4.22;84.96
4012;BME280;2020;48.682;9.024;2023-02-28T06:50:46;96992.19;;;-4.14;84.64
4012;BME280;2020;48.682;9.024;2023-02-28T06:53:12;96986.31;;;-4.16;84.80
4012;BME280;2020;48.682;9.024;2023-02-28T06:55:38;96990.34;;;-4.10;84.49
4012;BME280;2020;48.682;9.024;2023-02-28T06:58:04;96986.00;;;-4.06;83.65
4012;BME280;2020;48.682;9.024;2023-02-28T07:00:43;96980.81;;;-4.03;83.09
4012;BME280;2020;48.682;9.024;2023-02-28T07:03:11;96994.84;;;-4.17;82.67
4012;BME280;2020;48.682;9.024;2023-02-28T07:05:37;97002.94;;;-4.05;83.13
4012;BME280;2020;48.682;9.024;2023-02-28T07:08:04;96996.78;;;-4.00;83.12
4012;BME280;2020;48.682;9.024;2023-02-28T07:10:30;96999.09;;;-3.92;82.67
4012;BME280;2020;48.682;9.024;2023-02-28T07:12:55;96998.09;;;-3.88;83.27
4012;BME280;2020;48.682;9.024;2023-02-28T07:15:20;97001.25;;;-3.81;82.52
4012;BME280;2020;48.682;9.024;2023-02-28T07:17:45;97003.84;;;-3.83;81.25
4012;BME280;2020;48.682;9.024;2023-02-28T07:20:11;97005.50;;;-3.82;81.12
4012;BME280;2020;48.682;9.024;2023-02-28T07:22:36;97012.16;;;-3.77;81.41
4012;BME280;2020;48.682;9.024;2023-02-28T07:25:04;97009.47;;;-3.73;80.41
4012;BME280;2020;48.682;9.024;2023-02-28T07:27:29;97013.38;;;-3.64;81.13
4012;BME280;2020;48.682;9.024;2023-02-28T07:29:54;97004.97;;;-3.66;80.38
4012;BME280;2020;48.682;9.024;2023-02-28T07:32:20;97007.25;;;-3.58;80.57
4012;BME280;2020;48.682;9.024;2023-02-28T07:34:45;97010.63;;;-3.58;79.66
4012;BME280;2020;48.682;9.024;2023-02-28T07:37:10;97016.59;;;-3.59;79.57
4012;BME280;2020;48.682;9.024;2023-02-28T07:39:36;97014.94;;;-3.60;79.65
4012;BME280;2020;48.682;9.024;2023-02-28T07:42:04;97007.38;;;-3.61;79.28
4012;BME280;2020;48.682;9.024;2023-02-28T07:44:31;97009.50;;;-3.50;79.59
4012;BME280;2020;48.682;9.024;2023-02-28T07:46:56;97003.66;;;-3.53;78.95
4012;BME280;2020;48.682;9.024;2023-02-28T07:49:21;97004.31;;;-3.47;79.42
4012;BME280;2020;48.682;9.024;2023-02-28T07:51:46;97006.72;;;-3.43;78.67
4012;BME280;2020;48.682;9.024;2023-02-28T07:54:12;97005.97;;;-3.46;78.07
4012;BME280;2020;48.682;9.024;2023-02-28T07:56:37;97012.63;;;-3.42;78.16
4012;BME280;2020;48.682;9.024;2023-02-28T07:59:02;97012.50;;;-3.39;78.17
4012;BME280;2020;48.682;9.024;2023-02-28T08:01:28;97004.19;;;-3.44;77.75
4012;BME280;2020;48.682;9.024;2023-02-28T08:03:53;97010.19;;;-3.45;77.22
4012;BME280;2020;48.682;9.024;2023-02-28T08:06:21;97022.56;;;-3.36;78.03
4012;BME280;2020;48.682;9.024;2023-02-28T08:08:48;97024.56;;;-3.44;76.77
4012;BME280;2020;48.682;9.024;2023-02-28T08:11:14;97020.81;;;-3.34;77.94
4012;BME280;2020;48.682;9.024;2023-02-28T08:13:39;97029.53;;;-3.41;77.24
4012;BME280;2020;48.682;9.024;2023-02-28T08:16:05;97026.75;;;-3.33;77.44
4012;BME280;2020;48.682;9.024;2023-02-28T08:18:30;97032.97;;;-3.42;76.78
4012;BME280;2020;48.682;9.024;2023-02-28T08:20:57;97033.50;;;-3.32;76.43
4012;BME280;2020;48.682;9.024;2023-02-28T08:23:22;97027.06;;;-3.43;76.51
4012;BME280;2020;48.682;9.024;2023-02-28T08:25:56;97025.13;;;-3.36;75.71
4012;BME280;2020;48.682;9.024;2023-02-28T08:28:22;97029.22;;;-3.32;76.73
4012;BME280;2020;48.682;9.024;2023-02-28T08:30:47;97029.53;;;-3.41;76.02
4012;BME280;2020;48.682;9.024;2023-02-28T08:33:14;97026.75;;;-3.33;76.89
4012;BME280;2020;48.682;9.024;2023-02-28T08:35:39;97027.78;;;-3.39;76.53
4012;BME280;2020;48.682;9.024;2023-02-28T08:38:04;97030.97;;;-3.34;76.47
4012;BME280;2020;48.682;9.024;2023-02-28T08:40:29;97027.66;;;-3.36;76.11
4012;BME280;2020;48.682;9.024;2023-02-28T08:42:55;97027.66;;;-3.36;76.03
4012;BME280;2020;48.682;9.024;2023-02-28T08:45:20;97030.91;;;-3.31;76.04
4012;BME280;2020;48.682;9.024;2023-02-28T08:47:45;97037.91;;;-3.14;76.76
4012;BME280;2020;48.682;9.024;2023-02-28T08:50:10;97035.44;;;-3.15;75.11
4012;BME280;2020;48.682;9.024;2023-02-28T08:52:36;97040.88;;;-3.25;75.39
4012;BME280;2020;48.682;9.024;2023-02-28T08:55:01;97041.56;;;-3.21;75.02
4012;BME280;2020;48.682;9.024;2023-02-28T08:57:26;97055.16;;;-3.20;76.66
4012;BME280;2020;48.682;9.024;2023-02-28T08:59:52;97051.97;;;-3.27;75.49
4012;BME280;2020;48.682;9.024;2023-02-28T09:02:17;97047.28;;;-3.14;74.88
4012;BME280;2020;48.682;9.024;2023-02-28T09:04:43;97043.50;;;-3.04;75.14
4012;BME280;2020;48.682;9.024;2023-02-28T09:07:10;97047.75;;;-3.04;75.04
4012;BME280;2020;48.682;9.024;2023-02-28T09:09:36;97050.25;;;-3.03;75.27
4012;BME280;2020;48.682;9.024;2023-02-28T09:15:22;97062.88;;;-3.00;75.54
4012;BME280;2020;48.682;9.024;2023-02-28T09:17:48;97061.03;;;-2.96;75.02
4012;BME280;2020;48.682;9.024;2023-02-28T09:20:13;97065.97;;;-2.91;75.55
4012;BME280;2020;48.682;9.024;2023-02-28T09:22:38;97064.84;;;-2.84;74.73
4012;BME280;2020;48.682;9.024;2023-02-28T09:25:05;97060.56;;;-2.84;74.20
4012;BME280;2020;48.682;9.024;2023-02-28T09:27:30;97053.13;;;-2.88;73.83
4012;BME280;2020;48.682;9.024;2023-02-28T09:29:55;97061.66;;;-2.89;74.77
4012;BME280;2020;48.682;9.024;2023-02-28T09:32:21;97054.53;;;-2.81;74.47
4012;BME280;2020;48.682;9.024;2023-02-28T09:34:46;97057.50;;;-2.70;74.61
4012;BME280;2020;48.682;9.024;2023-02-28T09:37:11;97063.06;;;-2.82;74.40
4012;BME280;2020;48.682;9.024;2023-02-28T09:39:36;97059.28;;;-2.72;74.05
4012;BME280;2020;48.682;9.024;2023-02-28T09:42:03;97061.56;;;-2.64;74.04
4012;BME280;2020;48.682;9.024;2023-02-28T09:44:31;97066.59;;;-2.62;73.31
4012;BME280;2020;48.682;9.024;2023-02-28T09:47:01;97067.59;;;-2.67;73.75
4012;BME280;2020;48.682;9.024;2023-02-28T09:49:57;97066.88;;;-2.70;72.55
4012;BME280;2020;48.682;9.024;2023-02-28T09:52:30;97059.06;;;-2.66;73.38
4012;BME280;2020;48.682;9.024;2023-02-28T09:55:20;97072.09;;;-2.51;72.97
4012;BME280;2020;48.682;9.024;2023-02-28T09:57:48;97066.06;;;-2.48;72.66
4012;BME280;2020;48.682;9.024;2023-02-28T10:00:22;97070.31;;;-2.49;72.54
4012;BME280;2020;48.682;9.024;2023-02-28T10:05:42;97070.31;;;-2.49;73.02
4012;BME280;2020;48.682;9.024;2023-02-28T10:08:21;97075.81;;;-2.38;72.75
4012;BME280;2020;48.682;9.024;2023-02-28T10:10:54;97084.66;;;-2.24;72.28
4012;BME280;2020;48.682;9.024;2023-02-28T10:13:34;97077.19;;;-2.29;71.75
4012;BME280;2020;48.682;9.024;2023-02-28T10:16:31;97080.81;;;-2.35;71.84
4012;BME280;2020;48.682;9.024;2023-02-28T10:19:10;97090.34;;;-2.40;72.19
4012;BME280;2020;48.682;9.024;2023-02-28T10:21:42;97084.91;;;-2.30;72.54
4012;BME280;2020;48.682;9.024;2023-02-28T10:24:21;97091.28;;;-2.20;72.17
4012;BME280;2020;48.682;9.024;2023-02-28T10:26:48;97094.13;;;-2.06;71.68
4012;BME280;2020;48.682;9.024;2023-02-28T10:29:14;97095.91;;;-2.08;70.43
4012;BME280;2020;48.682;9.024;2023-02-28T10:31:40;97094.38;;;-2.12;70.92
4012;BME280;2020;48.682;9.024;2023-02-28T10:34:05;97100.31;;;-2.11;70.81
4012;BME280;2020;48.682;9.024;2023-02-28T10:36:31;97094.00;;;-2.02;70.84
4012;BME280;2020;48.682;9.024;2023-02-28T10:38:57;97091.50;;;-1.82;70.83
4012;BME280;2020;48.682;9.024;2023-02-28T10:41:30;97087.72;;;-1.73;68.94
4012;BME280;2020;48.682;9.024;2023-02-28T10:44:14;97085.34;;;-1.57;68.48
4012;BME280;2020;48.682;9.024;2023-02-28T10:46:41;97092.03;;;-1.54;68.16
4012;BME280;2020;48.682;9.024;2023-02-28T10:49:27;97084.00;;;-1.45;68.03
4012;BME280;2020;48.682;9.024;2023-02-28T10:51:56;97086.84;;;-1.32;67.43
4012;BME280;2020;48.682;9.024;2023-02-28T10:54:31;97084.50;;;-1.57;66.66
4012;BME280;2020;48.682;9.024;2023-02-28T10:59:41;97091.00;;;-1.50;66.78
4012;BME280;2020;48.682;9.024;2023-02-28T11:02:39;97076.38;;;-1.26;66.67
4012;BME280;2020;48.682;9.024;2023-02-28T11:05:28;97083.28;;;-1.28;66.12
4012;BME280;2020;48.682;9.024;2023-02-28T11:07:57;97085.00;;;-1.28;65.64
4012;BME280;2020;48.682;9.024;2023-02-28T11:10:27;97084.88;;;-1.06;65.55
4012;BME280;2020;48.682;9.024;2023-02-28T11:12:55;97082.34;;;-1.06;66.09
4012;BME280;2020;48.682;9.024;2023-02-28T11:20:36;97091.38;;;-0.99;64.30
4012;BME280;2020;48.682;9.024;2023-02-28T11:23:03;97092.00;;;-0.94;64.57
4012;BME280;2020;48.682;9.024;2023-02-28T11:25:33;97086.13;;;-0.96;65.16
4012;BME280;2020;48.682;9.024;2023-02-28T11:28:05;97096.63;;;-1.02;64.03
4012;BME280;2020;48.682;9.024;2023-02-28T11:30:41;97099.19;;;-1.02;63.72
4012;BME280;2020;48.682;9.024;2023-02-28T11:36:27;97085.63;;;0.08;62.59
4012;BME280;2020;48.682;9.024;2023-02-28T11:38:54;97078.16;;;0.56;64.19
4012;BME280;2020;48.682;9.024;2023-02-28T11:42:11;97083.34;;;0.72;62.18
4012;BME280;2020;48.682;9.024;2023-02-28T11:47:30;97073.66;;;1.43;59.83
4012;BME280;2020;48.682;9.024;2023-02-28T11:50:07;97068.91;;;1.03;60.37
4012;BME280;2020;48.682;9.024;2023-02-28T11:52:48;97070.34;;;1.25;60.32
4012;BME280;2020;48.682;9.024;2023-02-28T11:55:38;97065.19;;;1.57;60.66
4012;BME280;2020;48.682;9.024;2023-02-28T12:03:58;97062.72;;;1.39;57.55
4012;BME280;2020;48.682;9.024;2023-02-28T12:06:33;97064.50;;;1.69;57.64
4012;BME280;2020;48.682;9.024;2023-02-28T12:09:29;97055.88;;;2.17;57.65
4012;BME280;2020;48.682;9.024;2023-02-28T12:17:30;97048.03;;;2.49;58.48
4012;BME280;2020;48.682;9.024;2023-02-28T12:20:30;97066.13;;;1.86;57.50
4012;BME280;2020;48.682;9.024;2023-02-28T12:23:09;97069.63;;;1.69;59.02
4012;BME280;2020;48.682;9.024;2023-02-28T12:28:49;97061.00;;;1.86;56.75
4012;BME280;2020;48.682;9.024;2023-02-28T12:31:37;97057.34;;;2.21;58.72
4012;BME280;2020;48.682;9.024;2023-02-28T12:34:12;97045.91;;;2.41;56.64
4012;BME280;2020;48.682;9.024;2023-02-28T12:36:39;97057.38;;;2.36;58.54
4012;BME280;2020;48.682;9.024;2023-02-28T12:39:15;97052.44;;;2.47;54.88
4012;BME280;2020;48.682;9.024;2023-02-28T12:41:46;97043.75;;;2.04;55.41
4012;BME280;2020;48.682;9.024;2023-02-28T12:44:37;97029.38;;;2.31;56.45
4012;BME280;2020;48.682;9.024;2023-02-28T12:47:12;97030.59;;;2.54;57.12
4012;BME280;2020;48.682;9.024;2023-02-28T12:49:43;97035.91;;;2.80;54.57
4012;BME280;2020;48.682;9.024;2023-02-28T12:52:13;97033.88;;;3.00;54.45
4012;BME280;2020;48.682;9.024;2023-02-28T12:54:49;97021.50;;;2.92;53.11
4012;BME280;2020;48.682;9.024;2023-02-28T12:57:28;97030.91;;;3.06;56.65
4012;BME280;2020;48.682;9.024;2023-02-28T13:00:01;97020.09;;;3.01;55.23
4012;BME280;2020;48.682;9.024;2023-02-28T13:08:37;97016.31;;;3.89;52.05
4012;BME280;2020;48.682;9.024;2023-02-28T13:11:05;97015.97;;;3.80;52.49
4012;BME280;2020;48.682;9.024;2023-02-28T13:13:31;97022.66;;;3.43;52.30
4012;BME280;2020;48.682;9.024;2023-02-28T13:16:08;97021.25;;;3.51;51.76
4012;BME280;2020;48.682;9.024;2023-02-28T13:18:36;97025.69;;;3.90;51.36
4012;BME280;2020;48.682;9.024;2023-02-28T13:21:03;97021.13;;;3.80;52.15
4012;BME280;2020;48.682;9.024;2023-02-28T13:24:00;97010.25;;;4.16;49.74
4012;BME280;2020;48.682;9.024;2023-02-28T13:34:37;97016.44;;;4.52;50.60
4012;BME280;2020;48.682;9.024;2023-02-28T13:39:50;97015.63;;;4.38;50.65
4012;BME280;2020;48.682;9.024;2023-02-28T13:42:22;97016.25;;;4.55;51.89
4012;BME280;2020;48.682;9.024;2023-02-28T13:47:30;97019.53;;;4.83;51.09
4012;BME280;2020;48.682;9.024;2023-02-28T13:53:02;97026.09;;;5.00;48.61
4012;BME280;2020;48.682;9.024;2023-02-28T14:03:56;97022.22;;;4.43;48.52
4012;BME280;2020;48.682;9.024;2023-02-28T14:06:28;97017.91;;;4.82;49.04
4012;BME280;2020;48.682;9.024;2023-02-28T14:11:32;97006.72;;;4.81;48.91
4012;BME280;2020;48.682;9.024;2023-02-28T14:13:58;97006.97;;;4.65;48.09
4012;BME280;2020;48.682;9.024;2023-02-28T14:16:27;97010.06;;;4.58;49.22
4012;BME280;2020;48.682;9.024;2023-02-28T14:19:01;97008.22;;;4.73;49.12
4012;BME280;2020;48.682;9.024;2023-02-28T14:21:33;97007.16;;;4.62;48.82
4012;BME280;2020;48.682;9.024;2023-02-28T14:26:43;97005.88;;;4.94;47.82
4012;BME280;2020;48.682;9.024;2023-02-28T14:29:34;97011.91;;;4.81;47.58
4012;BME280;2020;48.682;9.024;2023-02-28T14:34:53;97000.75;;;4.81;48.26
4012;BME280;2020;48.682;9.024;2023-02-28T14:37:27;96999.34;;;4.77;48.44
4012;BME280;2020;48.682;9.024;2023-02-28T14:39:53;97014.53;;;5.06;50.33
4012;BME280;2020;48.682;9.024;2023-02-28T14:44:55;97015.88;;;5.36;47.08
4012;BME280;2020;48.682;9.024;2023-02-28T14:47:28;97013.59;;;5.07;46.37
4012;BME280;2020;48.682;9.024;2023-02-28T14:49:55;97012.59;;;4.96;49.72
4012;BME280;2020;48.682;9.024;2023-02-28T14:52:24;97014.75;;;5.03;48.38
4012;BME280;2020;48.682;9.024;2023-02-28T14:54:57;97011.66;;;4.97;47.23
4012;BME280;2020;48.682;9.024;2023-02-28T14:57:25;97017.63;;;4.98;47.25
4012;BME280;2020;48.682;9.024;2023-02-28T15:00:16;97017.09;;;4.68;47.85
4012;BME280;2020;48.682;9.024;2023-02-28T15:02:42;97010.63;;;5.00;48.67
4012;BME280;2020;48.682;9.024;2023-02-28T15:05:22;97012.94;;;4.79;48.49
4012;BME280;2020;48.682;9.024;2023-02-28T15:07:48;97016.09;;;5.33;48.28
4012;BME280;2020;48.682;9.024;2023-02-28T15:10:27;97015.88;;;5.36;46.54
4012;BME280;2020;48.682;9.024;2023-02-28T15:12:55;97015.88;;;5.36;47.03
4012;BME280;2020;48.682;9.024;2023-02-28T15:15:56;97014.66;;;5.29;46.96
4012;BME280;2020;48.682;9.024;2023-02-28T15:18:50;97029.56;;;5.49;46.99
4012;BME280;2020;48.682;9.024;2023-02-28T15:21:26;97020.59;;;5.42;47.16
4012;BME280;2020;48.682;9.024;2023-02-28T15:24:41;97023.44;;;5.26;47.00